Time;durP1;ratioP1;P1;durP2;ratioP2;P2;SDS_P1;SDS_P2;PMS_P1;PMS_P2;Temp;Humidity;BMP_temperature;BMP_pressure;BME280_temperature;BME280_humidity;BME280_pressure;Samples;Min_cycle;Max_cycle;Signal;HPM_P1;HPM_P2
2022/11/09 00:00:23;;;;;;;2.37;1.00;;;;;;;14.95;83.46;99937.97;5222255;28;20627;-77
2022/11/09 00:02:54;;;;;;;3.15;1.20;;;;;;;14.90;83.45;99934.78;5221282;28;20676;-76
2022/11/09 00:05:24;;;;;;;1.50;0.80;;;;;;;14.83;83.71;99932.63;5222087;28;20591;-75
2022/11/09 00:07:55;;;;;;;2.38;1.10;;;;;;;14.84;83.73;99932.53;5218583;28;20033;-76
2022/11/09 00:10:25;;;;;;;2.22;0.90;;;;;;;14.76;84.49;99920.78;5220177;28;20398;-76
2022/11/09 00:12:57;;;;;;;3.60;1.08;;;;;;;14.73;84.56;99926.25;5220811;28;20180;-76
2022/11/09 00:15:27;;;;;;;3.65;1.08;;;;;;;14.77;84.49;99905.88;5221654;28;20054;-76
2022/11/09 00:18:00;;;;;;;2.53;1.05;;;;;;;14.86;84.11;99911.38;5221820;28;20021;-76
2022/11/09 00:20:31;;;;;;;4.25;1.15;;;;;;;15.00;83.30;99920.09;5221528;28;20520;-76
2022/11/09 00:23:01;;;;;;;4.03;0.90;;;;;;;14.95;84.15;99911.66;5220520;28;20021;-76
2022/11/09 00:25:31;;;;;;;4.40;1.05;;;;;;;14.97;84.00;99912.38;5218921;28;20033;-76
2022/11/09 00:28:01;;;;;;;7.38;1.20;;;;;;;14.98;84.09;99921.97;5220325;28;20517;-76
2022/11/09 00:30:32;;;;;;;3.10;1.00;;;;;;;15.07;83.93;99912.66;5220901;28;20024;-75
2022/11/09 00:33:02;;;;;;;3.05;0.95;;;;;;;15.02;84.23;99904.22;5220257;28;20284;-77
2022/11/09 00:35:32;;;;;;;3.05;1.10;;;;;;;15.09;83.93;99913.38;5220028;28;20475;-76
2022/11/09 00:38:02;;;;;;;2.37;1.00;;;;;;;14.96;84.31;99907.22;5220487;28;20025;-76
2022/11/09 00:40:33;;;;;;;3.03;1.40;;;;;;;15.02;84.84;99902.41;5219506;28;20286;-76
2022/11/09 00:43:03;;;;;;;3.80;1.00;;;;;;;14.99;84.68;99892.06;5220525;28;20465;-77
2022/11/09 00:45:33;;;;;;;1.95;0.88;;;;;;;14.99;84.60;99889.44;5220340;28;20108;-76
2022/11/09 00:48:04;;;;;;;2.95;1.00;;;;;;;14.92;85.08;99892.56;5220143;28;20056;-76
2022/11/09 00:50:34;;;;;;;3.03;1.15;;;;;;;15.00;85.10;99892.94;5221256;28;20028;-76
2022/11/09 00:53:04;;;;;;;3.63;1.20;;;;;;;14.95;84.98;99898.50;5220359;28;20037;-76
2022/11/09 00:55:34;;;;;;;2.67;0.90;;;;;;;14.95;85.45;99903.75;5220610;28;20403;-76
2022/11/09 00:58:05;;;;;;;3.00;1.00;;;;;;;14.92;84.28;99901.31;5219600;28;20482;-76
2022/11/09 01:00:36;;;;;;;1.95;0.88;;;;;;;14.88;85.06;99906.88;5221166;28;20368;-76
2022/11/09 01:03:06;;;;;;;2.00;0.90;;;;;;;14.84;85.17;99906.22;5220092;28;20087;-76
2022/11/09 01:05:38;;;;;;;4.40;1.00;;;;;;;14.82;85.60;99911.66;5221730;28;20466;-76
2022/11/09 01:08:08;;;;;;;3.08;1.10;;;;;;;14.90;84.55;99902.34;5220174;28;20032;-76
2022/11/09 01:10:41;;;;;;;2.80;1.00;;;;;;;14.83;85.32;99901.06;5219971;28;20025;-76
2022/11/09 01:13:13;;;;;;;2.25;0.90;;;;;;;14.77;85.58;99900.59;5220171;28;20029;-76
2022/11/09 01:15:50;;;;;;;1.85;0.88;;;;;;;14.82;85.83;99895.88;5220887;28;20098;-76
2022/11/09 01:18:20;;;;;;;4.10;1.25;;;;;;;14.64;86.12;99889.16;5220359;28;20255;-76
2022/11/09 01:20:50;;;;;;;2.55;1.08;;;;;;;14.50;86.84;99891.81;5221284;28;20032;-76
2022/11/09 01:23:21;;;;;;;1.83;0.90;;;;;;;14.21;87.39;99905.88;5221284;28;20733;-76
2022/11/09 01:25:57;;;;;;;2.22;1.00;;;;;;;14.10;87.97;99905.69;5216407;28;20068;-76
2022/11/09 01:28:27;;;;;;;4.05;1.10;;;;;;;13.95;88.88;99898.72;5210749;28;20035;-76
2022/11/09 01:31:03;;;;;;;1.30;0.90;;;;;;;13.89;89.63;99909.59;5214228;28;20041;-76
2022/11/09 01:33:35;;;;;;;3.17;1.20;;;;;;;13.88;89.25;99907.91;5219560;28;20072;-76
2022/11/09 01:36:08;;;;;;;3.40;0.98;;;;;;;13.88;88.90;99900.03;5217213;28;20041;-76
2022/11/09 01:38:38;;;;;;;2.70;0.90;;;;;;;13.88;89.14;99903.47;5219704;28;20115;-76
2022/11/09 01:41:15;;;;;;;4.85;1.13;;;;;;;13.91;89.08;99903.31;5222522;28;20048;-76
2022/11/09 01:44:18;;;;;;;2.63;0.90;;;;;;;13.83;89.25;99888.94;5224698;28;20035;-76
2022/11/09 01:46:49;;;;;;;2.45;0.82;;;;;;;13.84;89.32;99893.25;5222698;28;20033;-76
2022/11/09 01:49:48;;;;;;;3.83;1.20;;;;;;;13.70;89.57;99898.47;5221875;28;20394;-76
2022/11/09 01:52:35;;;;;;;2.97;1.00;;;;;;;13.66;89.94;99896.97;5222890;28;20086;-76
2022/11/09 01:55:24;;;;;;;4.30;1.17;;;;;;;13.68;89.88;99897.72;5221241;28;20090;-76
2022/11/09 01:58:09;;;;;;;2.67;0.88;;;;;;;13.60;90.43;99899.97;5223046;28;20025;-76
2022/11/09 02:00:43;;;;;;;3.08;1.00;;;;;;;13.41;91.74;99897.53;5224634;28;20045;-76
2022/11/09 02:03:20;;;;;;;1.67;0.90;;;;;;;13.48;92.19;99893.66;5224544;28;20434;-76
2022/11/09 02:05:51;;;;;;;1.65;0.80;;;;;;;13.53;91.61;99895.97;5224825;28;20020;-76
2022/11/09 02:08:25;;;;;;;2.47;1.00;;;;;;;13.51;91.53;99897.84;5222806;28;20032;-76
2022/11/09 02:11:10;;;;;;;4.40;1.00;;;;;;;13.68;91.29;99888.06;5224523;28;20033;-76
2022/11/09 02:13:46;;;;;;;2.60;0.90;;;;;;;13.60;90.76;99892.09;5221260;28;20032;-76
2022/11/09 02:16:17;;;;;;;1.63;0.98;;;;;;;13.60;90.96;99897.34;5224110;28;20551;-76
2022/11/09 02:18:51;;;;;;;3.20;1.02;;;;;;;13.52;91.83;99897.78;5222645;28;20290;-76
2022/11/09 02:21:25;;;;;;;2.03;1.02;;;;;;;13.44;92.04;99899.16;5224122;28;20025;-76
2022/11/09 02:23:56;;;;;;;1.30;0.80;;;;;;;13.45;92.22;99896.47;5224069;28;20039;-76
2022/11/09 02:26:32;;;;;;;2.20;0.93;;;;;;;13.61;91.23;99899.03;5224094;28;20025;-74
2022/11/09 02:29:06;;;;;;;2.40;0.90;;;;;;;13.58;91.42;99902.66;5220186;28;20036;-76
2022/11/09 02:31:41;;;;;;;2.75;0.77;;;;;;;13.55;91.67;99902.00;5223278;28;20024;-76
2022/11/09 02:34:16;;;;;;;1.35;0.70;;;;;;;13.50;92.64;99898.78;5224509;28;20548;-76
2022/11/09 02:36:47;;;;;;;2.90;1.00;;;;;;;13.47;92.52;99901.59;5223015;28;20063;-76
2022/11/09 02:39:19;;;;;;;2.58;0.90;;;;;;;13.52;92.60;99895.16;5221932;28;20472;-76
2022/11/09 02:41:58;;;;;;;1.35;0.63;;;;;;;13.46;92.76;99899.91;5220818;28;20024;-76
2022/11/09 02:44:29;;;;;;;2.65;0.95;;;;;;;13.44;92.58;99891.28;5223002;28;20028;-75
2022/11/09 02:47:00;;;;;;;1.67;0.77;;;;;;;13.46;93.61;99899.91;5222427;28;20032;-76
2022/11/09 02:49:30;;;;;;;1.35;0.80;;;;;;;13.41;93.05;99891.47;5223399;28;20033;-76
2022/11/09 02:52:00;;;;;;;2.33;0.93;;;;;;;13.36;93.74;99888.25;5222165;28;20032;-76
2022/11/09 02:54:31;;;;;;;1.83;0.90;;;;;;;13.34;93.93;99901.47;5223820;28;20017;-76
2022/11/09 02:57:01;;;;;;;2.35;1.05;;;;;;;13.40;93.60;99895.03;5223447;28;20036;-76
2022/11/09 02:59:31;;;;;;;2.22;0.80;;;;;;;13.36;94.34;99898.72;5223579;28;20064;-76
2022/11/09 03:02:02;;;;;;;1.40;0.82;;;;;;;13.36;94.50;99899.59;5222780;28;20033;-75
2022/11/09 03:04:32;;;;;;;2.05;0.80;;;;;;;13.36;94.87;99903.97;5223535;28;20442;-76
2022/11/09 03:07:02;;;;;;;3.13;1.13;;;;;;;13.56;93.65;99896.66;5218969;28;20041;-76
2022/11/09 03:09:33;;;;;;;2.13;0.80;;;;;;;13.75;92.86;99891.19;5223150;28;20049;-77
2022/11/09 03:12:27;;;;;;;1.45;0.75;;;;;;;13.94;91.64;99897.03;5223265;28;20079;-77
2022/11/09 03:14:58;;;;;;;3.72;0.73;;;;;;;14.00;90.39;99897.50;5223409;28;20091;-76
2022/11/09 03:17:30;;;;;;;2.13;0.90;;;;;;;14.15;90.08;99895.72;5223020;28;20578;-76
2022/11/09 03:20:01;;;;;;;4.22;1.10;;;;;;;14.20;89.53;99904.19;5223255;28;20059;-76
2022/11/09 03:22:31;;;;;;;2.92;0.90;;;;;;;14.32;88.76;99903.47;5222715;28;20025;-76
2022/11/09 03:25:01;;;;;;;2.65;0.90;;;;;;;14.39;88.45;99897.72;5222365;28;20083;-76
2022/11/09 03:27:32;;;;;;;2.28;1.10;;;;;;;14.37;88.62;99893.50;5222759;28;20059;-76
2022/11/09 03:30:03;;;;;;;2.70;0.88;;;;;;;14.43;88.64;99890.50;5221182;28;20047;-76
2022/11/09 03:32:33;;;;;;;3.90;1.05;;;;;;;14.59;87.21;99891.25;5220834;28;20183;-76
2022/11/09 03:35:03;;;;;;;1.95;0.80;;;;;;;14.56;87.16;99884.38;5222692;28;20024;-76
2022/11/09 03:37:34;;;;;;;1.65;0.90;;;;;;;14.48;88.09;99883.16;5221940;28;20037;-76
2022/11/09 03:40:05;;;;;;;2.95;1.10;;;;;;;14.49;89.02;99879.59;5221438;28;20037;-74
2022/11/09 03:42:35;;;;;;;1.77;0.85;;;;;;;14.56;87.53;99880.94;5221799;28;20021;-76
2022/11/09 03:45:06;;;;;;;8.47;0.90;;;;;;;14.55;88.05;99884.47;5222941;28;20226;-76
2022/11/09 03:47:39;;;;;;;1.73;0.90;;;;;;;14.37;89.26;99867.22;5220843;28;20810;-76
2022/11/09 03:50:11;;;;;;;3.20;1.10;;;;;;;14.42;89.67;99878.31;5222211;28;20032;-76
2022/11/09 03:52:45;;;;;;;2.42;1.02;;;;;;;14.39;89.37;99865.34;5222855;28;20090;-76
2022/11/09 03:55:16;;;;;;;1.83;0.98;;;;;;;14.37;90.38;99870.69;5222830;28;20025;-76
2022/11/09 03:57:46;;;;;;;1.67;0.90;;;;;;;14.36;90.62;99865.53;5221925;28;20177;-76
2022/11/09 04:00:19;;;;;;;4.30;1.02;;;;;;;14.15;91.38;99867.69;5222543;28;20045;-76
2022/11/09 04:02:50;;;;;;;2.25;1.00;;;;;;;14.19;91.38;99860.47;5220961;28;20700;-76
2022/11/09 04:05:20;;;;;;;1.75;0.90;;;;;;;14.07;91.54;99871.72;5221993;28;20314;-76
2022/11/09 04:07:55;;;;;;;2.22;0.90;;;;;;;14.06;92.06;99864.78;5222101;28;20518;-76
2022/11/09 04:10:26;;;;;;;3.45;0.90;;;;;;;14.26;90.79;99867.03;5221876;28;20086;-76
2022/11/09 04:12:56;;;;;;;1.80;0.95;;;;;;;14.12;91.04;99854.69;5222073;28;20037;-76
2022/11/09 04:15:26;;;;;;;2.13;0.88;;;;;;;14.09;92.43;99859.31;5222142;28;20108;-76
2022/11/09 04:17:58;;;;;;;2.70;0.80;;;;;;;14.03;92.53;99859.69;5221749;28;20478;-76
2022/11/09 04:20:30;;;;;;;4.55;1.20;;;;;;;13.99;93.24;99847.66;5221981;28;20279;-76
2022/11/09 04:23:03;;;;;;;3.00;0.82;;;;;;;14.09;92.18;99844.38;5221286;28;20486;-76
2022/11/09 04:25:35;;;;;;;3.33;1.00;;;;;;;14.10;92.12;99848.69;5218285;28;20029;-76
2022/11/09 04:28:08;;;;;;;2.40;1.05;;;;;;;13.92;94.43;99862.13;5220147;28;20036;-76
2022/11/09 04:30:39;;;;;;;3.13;0.93;;;;;;;13.89;94.45;99863.16;5221085;28;20544;-76
2022/11/09 04:33:09;;;;;;;2.08;0.90;;;;;;;13.89;94.87;99870.19;5220194;28;20037;-76
2022/11/09 04:35:40;;;;;;;1.85;1.00;;;;;;;13.97;94.17;99874.06;5220475;28;20028;-76
2022/11/09 04:38:12;;;;;;;2.53;1.10;;;;;;;14.08;93.50;99868.16;5219406;28;20067;-73
2022/11/09 04:40:42;;;;;;;3.85;0.95;;;;;;;14.06;93.92;99876.09;5220205;28;20028;-76
2022/11/09 04:43:13;;;;;;;1.88;0.90;;;;;;;13.92;94.40;99872.63;5221010;28;20074;-76
2022/11/09 04:45:43;;;;;;;1.88;0.90;;;;;;;13.97;94.80;99870.56;5219683;28;20047;-76
2022/11/09 04:48:13;;;;;;;2.00;0.90;;;;;;;14.02;93.83;99879.00;5219585;28;20414;-76
2022/11/09 04:50:45;;;;;;;2.53;0.90;;;;;;;14.10;93.69;99874.16;5222931;28;20498;-76
2022/11/09 04:53:15;;;;;;;1.75;0.75;;;;;;;14.11;94.23;99873.22;5219621;28;20035;-76
2022/11/09 04:55:46;;;;;;;2.63;0.73;;;;;;;14.14;95.00;99880.91;5221299;28;20095;-76
2022/11/09 04:58:16;;;;;;;1.80;0.88;;;;;;;14.10;94.43;99871.53;5220617;28;20082;-76
2022/11/09 05:00:47;;;;;;;1.38;0.73;;;;;;;14.09;94.54;99861.94;5219615;28;20434;-76
2022/11/09 05:03:17;;;;;;;1.08;0.73;;;;;;;13.93;95.62;99869.91;5219749;28;20333;-76
2022/11/09 05:05:48;;;;;;;1.63;0.90;;;;;;;13.98;95.70;99886.25;5220658;28;20052;-76
2022/11/09 05:08:18;;;;;;;3.80;0.90;;;;;;;13.95;96.27;99881.16;5219413;28;20110;-76
2022/11/09 05:10:48;;;;;;;2.95;0.90;;;;;;;13.92;96.34;99876.09;5220881;28;20029;-76
2022/11/09 05:13:18;;;;;;;2.22;0.90;;;;;;;13.96;96.46;99880.25;5220838;28;20048;-76
2022/11/09 05:15:49;;;;;;;3.05;0.85;;;;;;;14.06;96.12;99883.16;5220670;28;20024;-76
2022/11/09 05:18:19;;;;;;;1.63;0.77;;;;;;;13.98;96.52;99878.38;5219104;28;20063;-76
2022/11/09 05:20:49;;;;;;;5.87;1.23;;;;;;;14.11;96.26;99868.78;5221271;28;20756;-77
2022/11/09 05:26:09;;;;;;;1.88;0.80;;;;;;;14.13;96.11;99871.31;5217711;28;20043;-76
2022/11/09 05:28:40;;;;;;;1.48;0.80;;;;;;;14.02;96.58;99873.75;5220110;28;20023;-75
2022/11/09 05:31:10;;;;;;;2.88;0.77;;;;;;;14.00;96.92;99880.88;5221273;28;20518;-76
2022/11/09 05:33:40;;;;;;;2.28;0.80;;;;;;;14.06;96.57;99876.09;5219199;28;20029;-76
2022/11/09 05:36:10;;;;;;;3.25;0.80;;;;;;;14.11;96.37;99867.94;5219907;28;20025;-76
2022/11/09 05:38:41;;;;;;;2.78;0.75;;;;;;;14.13;96.56;99871.31;5219906;28;20247;-76
2022/11/09 05:41:12;;;;;;;1.35;0.85;;;;;;;14.15;96.79;99875.56;5219483;28;20540;-76
2022/11/09 05:43:43;;;;;;;1.80;0.70;;;;;;;14.04;97.66;99877.13;5220355;28;20025;-76
2022/11/09 05:46:15;;;;;;;3.33;0.90;;;;;;;14.01;97.67;99866.81;5220469;28;20103;-76
2022/11/09 05:48:45;;;;;;;2.28;0.88;;;;;;;14.04;98.05;99882.38;5219973;28;20057;-76
2022/11/09 05:51:16;;;;;;;1.25;0.70;;;;;;;13.99;97.81;99890.56;5220534;28;20568;-76
2022/11/09 05:53:46;;;;;;;2.47;0.70;;;;;;;14.11;98.16;99887.16;5218742;28;20025;-76
2022/11/09 05:56:16;;;;;;;2.23;0.77;;;;;;;14.08;98.45;99903.13;5220298;28;20597;-76
2022/11/09 05:58:46;;;;;;;2.05;0.60;;;;;;;14.16;98.34;99900.94;5220101;28;20741;-76
2022/11/09 06:01:18;;;;;;;2.70;0.90;;;;;;;14.12;98.55;99902.00;5220316;28;20041;-76
2022/11/09 06:03:48;;;;;;;2.92;0.70;;;;;;;14.14;98.71;99900.16;5220515;28;20123;-76
2022/11/09 06:06:18;;;;;;;1.85;0.70;;;;;;;14.14;98.69;99900.16;5219895;28;20037;-76
2022/11/09 06:08:49;;;;;;;1.47;0.67;;;;;;;14.18;98.46;99906.06;5220068;28;20025;-76
2022/11/09 06:11:20;;;;;;;1.33;0.80;;;;;;;14.22;98.79;99904.97;5220223;28;20352;-76
2022/11/09 06:13:51;;;;;;;1.13;0.60;;;;;;;14.06;99.83;99907.63;5220862;28;20155;-76
2022/11/09 06:16:21;;;;;;;3.30;0.80;;;;;;;14.19;99.57;99916.50;5218665;28;20080;-75
2022/11/09 06:18:52;;;;;;;1.10;0.60;;;;;;;14.14;99.88;99920.31;5219514;28;20068;-76
2022/11/09 06:21:22;;;;;;;2.10;0.85;;;;;;;14.10;100.00;99924.06;5219254;28;20029;-76
2022/11/09 06:23:52;;;;;;;2.00;0.65;;;;;;;14.13;100.00;99929.13;5220512;28;20028;-76
2022/11/09 06:26:23;;;;;;;1.00;0.70;;;;;;;14.06;100.00;99933.09;5220870;28;20093;-76
2022/11/09 06:28:53;;;;;;;2.08;0.77;;;;;;;14.19;100.00;99929.66;5223770;28;20379;-76
2022/11/09 06:31:23;;;;;;;3.28;0.70;;;;;;;14.18;100.00;99927.09;5220000;28;20032;-73
2022/11/09 06:33:53;;;;;;;2.60;1.00;;;;;;;14.28;100.00;99934.34;5223778;28;20391;-76
2022/11/09 06:36:24;;;;;;;1.92;0.85;;;;;;;14.23;100.00;99944.28;5222802;28;20060;-76
2022/11/09 06:38:54;;;;;;;3.33;0.65;;;;;;;14.28;100.00;99955.38;5223340;28;20033;-76
2022/11/09 06:41:24;;;;;;;3.08;0.90;;;;;;;14.17;100.00;99941.19;5222083;28;20036;-76
2022/11/09 06:43:55;;;;;;;3.17;0.88;;;;;;;14.22;100.00;99953.13;5223071;28;20040;-76
2022/11/09 06:46:25;;;;;;;1.73;0.75;;;;;;;14.16;100.00;99944.75;5222019;28;20106;-73
2022/11/09 06:48:55;;;;;;;1.43;0.73;;;;;;;14.07;100.00;99945.28;5220454;28;20468;-76
2022/11/09 06:51:26;;;;;;;2.53;0.90;;;;;;;14.04;100.00;99942.81;5223301;28;20672;-76
2022/11/09 06:53:56;;;;;;;3.08;0.90;;;;;;;14.15;100.00;99937.78;5224040;28;20036;-76
2022/11/09 06:56:26;;;;;;;1.50;0.77;;;;;;;14.08;100.00;99946.97;5222924;28;20134;-74
2022/11/09 06:58:56;;;;;;;2.75;1.10;;;;;;;14.07;100.00;99940.84;5222390;28;20021;-76
2022/11/09 07:01:27;;;;;;;2.25;0.90;;;;;;;14.02;100.00;99947.31;5222997;28;20086;-76
2022/11/09 07:03:58;;;;;;;2.45;0.70;;;;;;;13.97;100.00;99946.75;5222837;28;20029;-76
2022/11/09 07:06:28;;;;;;;1.60;1.00;;;;;;;13.94;100.00;99954.81;5223027;28;20036;-76
2022/11/09 07:08:59;;;;;;;2.08;0.98;;;;;;;13.95;100.00;99961.75;5222948;28;20385;-76
2022/11/09 07:11:29;;;;;;;4.18;0.90;;;;;;;14.01;100.00;99954.38;5223849;28;20027;-76
2022/11/09 07:14:01;;;;;;;1.45;0.80;;;;;;;14.03;100.00;99959.53;5223529;28;20056;-76
2022/11/09 07:16:32;;;;;;;1.58;0.80;;;;;;;14.07;100.00;99963.69;5223258;28;20020;-76
2022/11/09 07:19:02;;;;;;;3.63;0.93;;;;;;;14.11;100.00;99952.88;5219079;28;20308;-76
2022/11/09 07:21:33;;;;;;;1.50;0.75;;;;;;;14.18;100.00;99956.00;5223228;28;20399;-76
2022/11/09 07:24:03;;;;;;;2.35;1.00;;;;;;;14.21;100.00;99959.31;5223236;28;20074;-76
2022/11/09 07:26:33;;;;;;;2.33;1.00;;;;;;;14.21;100.00;99953.19;5219688;28;20053;-76
2022/11/09 07:29:04;;;;;;;2.80;0.90;;;;;;;14.18;100.00;99962.13;5222820;28;20033;-75
2022/11/09 07:31:34;;;;;;;1.13;0.60;;;;;;;14.14;100.00;99963.22;5222885;28;20120;-76
2022/11/09 07:34:04;;;;;;;1.65;0.70;;;;;;;14.10;100.00;99966.94;5221247;28;20112;-76
2022/11/09 07:36:35;;;;;;;3.42;0.85;;;;;;;14.26;100.00;99973.00;5222782;28;20407;-76
2022/11/09 07:39:06;;;;;;;2.35;0.75;;;;;;;14.26;100.00;99977.44;5220503;28;20127;-75
2022/11/09 07:41:36;;;;;;;2.88;0.80;;;;;;;14.25;100.00;99975.75;5222230;28;20032;-77
2022/11/09 07:44:06;;;;;;;2.05;0.82;;;;;;;14.31;100.00;99963.09;5221904;28;20107;-76
2022/11/09 07:46:37;;;;;;;3.17;1.00;;;;;;;14.38;100.00;99971.41;5221718;28;20017;-76
2022/11/09 07:49:08;;;;;;;2.20;1.00;;;;;;;14.31;100.00;99976.22;5222285;28;20067;-76
2022/11/09 07:51:39;;;;;;;3.40;0.85;;;;;;;14.24;100.00;99987.22;5223202;28;20057;-76
2022/11/09 07:54:10;;;;;;;2.28;0.90;;;;;;;14.22;100.00;99986.47;5223117;28;20116;-76
2022/11/09 07:56:40;;;;;;;1.67;0.60;;;;;;;14.28;100.00;99979.03;5222089;28;20107;-76
2022/11/09 07:59:10;;;;;;;2.33;0.82;;;;;;;14.40;100.00;99980.91;5221562;28;20473;-76
2022/11/09 08:01:41;;;;;;;3.78;1.10;;;;;;;14.39;100.00;99988.91;5222604;28;20028;-76
2022/11/09 08:04:11;;;;;;;3.10;0.95;;;;;;;14.50;100.00;99981.22;5222706;28;20032;-76
2022/11/09 08:06:41;;;;;;;1.40;0.80;;;;;;;14.52;100.00;99980.19;5221984;28;20108;-76
2022/11/09 08:09:12;;;;;;;2.17;0.70;;;;;;;14.46;100.00;99982.34;5221571;28;20057;-76
2022/11/09 08:11:42;;;;;;;1.80;0.80;;;;;;;14.47;100.00;99997.19;5222672;28;20275;-76
2022/11/09 08:14:12;;;;;;;1.42;0.80;;;;;;;14.59;100.00;99991.19;5221648;28;20037;-76
2022/11/09 08:16:42;;;;;;;3.65;1.00;;;;;;;14.74;100.00;99992.88;5220330;28;20371;-76
2022/11/09 08:19:13;;;;;;;2.55;0.80;;;;;;;14.98;98.87;99990.41;5222907;28;20033;-76
2022/11/09 08:21:43;;;;;;;2.53;0.80;;;;;;;15.26;97.97;99979.81;5220029;28;20040;-75
2022/11/09 08:24:13;;;;;;;2.15;0.80;;;;;;;16.27;94.79;99980.97;5221291;28;20103;-76
2022/11/09 08:26:44;;;;;;;1.95;0.70;;;;;;;16.61;90.31;99989.13;5219974;28;20079;-76
2022/11/09 08:29:14;;;;;;;4.60;0.90;;;;;;;16.81;88.50;99994.69;5221733;28;20104;-76
2022/11/09 08:31:44;;;;;;;2.60;0.80;;;;;;;16.57;90.23;99995.56;5221458;28;20033;-76
2022/11/09 08:34:15;;;;;;;2.08;0.70;;;;;;;16.20;91.31;99991.09;5221570;28;20098;-76
2022/11/09 08:36:45;;;;;;;1.52;0.60;;;;;;;16.31;92.29;99996.47;5220524;28;20083;-76
2022/11/09 08:39:16;;;;;;;2.20;0.68;;;;;;;16.13;92.46;99995.09;5220293;28;20029;-76
2022/11/09 08:41:46;;;;;;;2.22;0.80;;;;;;;15.97;93.45;99989.16;5218801;28;20108;-76
2022/11/09 08:44:17;;;;;;;1.60;0.63;;;;;;;15.66;94.83;100004.44;5220973;28;20029;-76
2022/11/09 08:46:47;;;;;;;1.55;0.70;;;;;;;15.73;94.72;99989.94;5220536;28;20275;-76
2022/11/09 08:49:17;;;;;;;3.10;0.70;;;;;;;15.73;96.22;99987.28;5220900;28;20178;-76
2022/11/09 08:51:47;;;;;;;1.77;0.63;;;;;;;15.71;96.25;99987.38;5221162;28;20290;-76
2022/11/09 08:54:18;;;;;;;3.15;0.80;;;;;;;15.51;97.04;99997.56;5219917;28;20060;-76
2022/11/09 08:56:48;;;;;;;1.40;0.70;;;;;;;15.57;96.95;99991.88;5221226;28;20033;-76
2022/11/09 08:59:18;;;;;;;1.80;0.70;;;;;;;15.57;97.09;99999.78;5220571;28;20584;-76
2022/11/09 09:01:48;;;;;;;1.70;0.75;;;;;;;15.53;97.33;99993.03;5221054;28;20053;-76
2022/11/09 09:04:19;;;;;;;1.02;0.70;;;;;;;15.57;96.15;99997.97;5221533;28;20020;-76
2022/11/09 09:06:49;;;;;;;2.65;0.90;;;;;;;15.67;97.13;99996.44;5219806;28;20025;-76
2022/11/09 09:09:20;;;;;;;1.60;0.80;;;;;;;15.63;95.96;99997.59;5219763;28;20059;-76
2022/11/09 09:11:50;;;;;;;1.67;0.60;;;;;;;15.70;95.64;99990.97;5220300;28;20027;-77
2022/11/09 09:14:20;;;;;;;2.88;0.65;;;;;;;15.78;94.94;99993.97;5220852;28;20025;-77
2022/11/09 09:16:51;;;;;;;0.90;0.60;;;;;;;15.75;95.30;99994.16;5220799;28;20064;-77
2022/11/09 09:19:21;;;;;;;0.85;0.50;;;;;;;15.86;94.16;99986.38;5219433;28;20115;-76
2022/11/09 09:21:52;;;;;;;1.30;0.60;;;;;;;15.96;94.56;99984.84;5220091;28;20045;-76
2022/11/09 09:24:23;;;;;;;1.67;0.50;;;;;;;15.85;95.06;99984.69;5221140;28;20033;-76
2022/11/09 09:26:53;;;;;;;1.85;0.60;;;;;;;15.81;95.18;99980.56;5220482;28;20478;-76
2022/11/09 09:29:23;;;;;;;1.45;0.60;;;;;;;15.82;93.28;99982.25;5220962;28;20037;-76
2022/11/09 09:31:53;;;;;;;1.40;0.50;;;;;;;15.74;94.11;99984.53;5220431;28;20536;-76
2022/11/09 09:34:24;;;;;;;1.90;0.60;;;;;;;15.72;93.04;99989.06;5221740;28;20115;-76
2022/11/09 09:36:55;;;;;;;3.08;0.57;;;;;;;15.69;94.28;99984.00;5218816;28;20035;-76
2022/11/09 09:39:25;;;;;;;1.92;0.80;;;;;;;15.64;95.19;99986.13;5219741;28;20430;-77
2022/11/09 09:41:59;;;;;;;0.85;0.40;;;;;;;15.64;94.81;99985.25;5220774;28;20041;-76
2022/11/09 09:44:42;;;;;;;0.88;0.32;;;;;;;15.71;93.80;99981.28;5221536;28;20020;-76
2022/11/09 09:47:32;;;;;;;3.00;0.57;;;;;;;15.81;92.80;99983.22;5215907;28;20033;-76
2022/11/09 09:50:10;;;;;;;2.13;0.50;;;;;;;15.83;93.89;100002.41;5219927;28;20025;-76
2022/11/09 09:52:59;;;;;;;1.15;0.40;;;;;;;16.03;92.61;99994.00;5221090;28;20036;-76
2022/11/09 09:55:46;;;;;;;0.85;0.40;;;;;;;16.30;91.53;99986.88;5220486;28;20428;-77
2022/11/09 09:58:25;;;;;;;0.95;0.40;;;;;;;16.36;90.99;99991.75;5220062;28;20267;-76
2022/11/09 10:01:11;;;;;;;1.27;0.60;;;;;;;16.71;90.84;99990.16;5221499;28;20037;-76
2022/11/09 10:03:42;;;;;;;1.98;0.52;;;;;;;16.67;89.24;99996.63;5223070;28;20067;-77
2022/11/09 10:06:47;;;;;;;1.83;0.47;;;;;;;16.79;88.72;99995.78;5223739;28;20504;-76
2022/11/09 10:09:40;;;;;;;1.58;0.57;;;;;;;16.92;88.27;99997.44;5223046;28;20024;-74
2022/11/09 10:12:31;;;;;;;1.75;0.50;;;;;;;17.07;88.96;99987.56;5224232;28;20033;-76
2022/11/09 10:15:57;;;;;;;1.63;0.43;;;;;;;17.02;87.25;99993.22;5222949;28;20430;-76
2022/11/09 10:19:03;;;;;;;1.80;0.50;;;;;;;17.05;87.08;99985.06;5155027;28;20108;-76
2022/11/09 10:21:57;;;;;;;1.05;0.50;;;;;;;16.97;87.29;99979.47;5205935;28;20567;-76
2022/11/09 10:24:30;;;;;;;1.60;0.40;;;;;;;16.95;88.17;99980.56;5223706;28;20029;-76
2022/11/09 10:27:21;;;;;;;0.90;0.40;;;;;;;16.83;87.65;99981.41;5222446;28;20094;-76
2022/11/09 10:29:53;;;;;;;1.02;0.30;;;;;;;16.89;87.98;99978.31;5221719;28;20025;-76
2022/11/09 10:32:24;;;;;;;2.03;0.40;;;;;;;16.83;87.96;99971.66;5222618;28;20418;-76
2022/11/09 10:35:00;;;;;;;2.05;0.50;;;;;;;16.66;87.89;99981.75;5223310;28;20025;-76
2022/11/09 10:37:33;;;;;;;3.08;0.43;;;;;;;16.63;89.26;99979.31;5223113;28;20532;-76
2022/11/09 10:40:30;;;;;;;1.58;0.47;;;;;;;16.66;89.51;99983.53;5218549;28;20261;-77
2022/11/09 10:43:09;;;;;;;1.13;0.40;;;;;;;16.79;88.60;99987.84;5223344;28;20017;-76
2022/11/09 10:45:42;;;;;;;3.03;0.50;;;;;;;16.91;87.92;99984.34;5219848;28;20036;-75
2022/11/09 10:48:13;;;;;;;2.28;0.35;;;;;;;16.84;89.12;99983.91;5222806;28;20118;-76
2022/11/09 10:50:53;;;;;;;1.15;0.47;;;;;;;16.82;88.65;99966.53;5224147;28;20306;-76
2022/11/09 10:53:25;;;;;;;1.08;0.40;;;;;;;17.05;88.69;99971.84;5223016;28;20395;-76
2022/11/09 10:56:16;;;;;;;0.90;0.40;;;;;;;17.16;88.08;99973.72;5223260;28;20021;-76
2022/11/09 10:58:51;;;;;;;1.23;0.50;;;;;;;17.43;88.74;99971.75;5219234;28;20033;-76
2022/11/09 11:01:34;;;;;;;1.55;0.50;;;;;;;17.66;88.39;99963.00;5223285;28;20033;-77
2022/11/09 11:04:23;;;;;;;1.45;0.40;;;;;;;17.45;86.79;99970.69;5219069;28;20068;-76
2022/11/09 11:06:54;;;;;;;1.65;0.40;;;;;;;17.50;86.99;99962.44;5221531;28;20303;-76
2022/11/09 11:09:27;;;;;;;1.30;0.57;;;;;;;17.56;85.40;99983.97;5220030;28;20576;-75
2022/11/09 11:12:19;;;;;;;3.30;0.63;;;;;;;17.39;85.68;99991.41;5221221;28;20033;-75
2022/11/09 11:14:50;;;;;;;1.98;0.50;;;;;;;17.32;86.91;99984.88;5220872;28;20075;-76
2022/11/09 11:17:33;;;;;;;1.95;0.55;;;;;;;17.25;87.38;99975.69;5222212;28;20029;-76
2022/11/09 11:20:37;;;;;;;0.90;0.40;;;;;;;16.68;90.02;99987.75;5222685;28;20499;-76
2022/11/09 11:23:15;;;;;;;2.35;0.68;;;;;;;16.64;90.18;99994.19;5163445;28;20041;-76
2022/11/09 11:25:54;;;;;;;1.75;0.60;;;;;;;16.47;91.19;100009.50;5222296;28;20033;-76
2022/11/09 11:28:32;;;;;;;2.13;0.50;;;;;;;16.00;94.51;100031.13;5222290;28;20537;-75
2022/11/09 11:31:03;;;;;;;2.70;0.60;;;;;;;15.45;100.00;100038.28;5219165;28;20077;-76
2022/11/09 11:33:34;;;;;;;7.50;0.98;;;;;;;15.09;100.00;100039.72;5222316;28;20043;-75
2022/11/09 11:36:18;;;;;;;4.13;0.80;;;;;;;14.61;100.00;100058.50;5221558;28;20041;-73
2022/11/09 11:39:09;;;;;;;4.97;0.77;;;;;;;14.16;100.00;100047.25;5220685;28;20502;-76
2022/11/09 11:41:43;;;;;;;2.03;0.52;;;;;;;14.24;100.00;100042.41;5220464;28;20494;-76
2022/11/09 11:44:32;;;;;;;4.15;0.60;;;;;;;13.85;100.00;100027.13;5222134;28;20086;-77
2022/11/09 11:47:43;;;;;;;2.28;0.35;;;;;;;13.97;100.00;100028.19;5218143;28;20029;-76
2022/11/09 11:50:19;;;;;;;1.85;0.30;;;;;;;14.23;100.00;100030.19;5204632;28;20110;-76
2022/11/09 11:53:17;;;;;;;1.67;0.30;;;;;;;14.20;100.00;100011.94;5220889;28;20039;-76
2022/11/09 11:55:56;;;;;;;2.00;0.30;;;;;;;14.42;100.00;100002.69;5220044;28;20036;-76
2022/11/09 11:58:42;;;;;;;3.35;0.63;;;;;;;14.66;100.00;99997.75;5220391;28;20025;-76
2022/11/09 12:01:34;;;;;;;3.80;0.50;;;;;;;14.53;100.00;99991.53;5219774;28;20056;-76
2022/11/09 12:04:16;;;;;;;5.05;0.60;;;;;;;14.69;100.00;99987.03;5219245;28;20040;-76